sensor_id;sensor_type;location;lat;lon;timestamp;P1;durP1;ratioP1;P2;durP2;ratioP2
47715;SDS011;33476;50.984;3.538;2022-08-30T00:01:11;6.40;;;2.58;;
47715;SDS011;33476;50.984;3.538;2022-08-30T00:03:45;7.82;;;2.70;;
47715;SDS011;33476;50.984;3.538;2022-08-30T00:06:14;10.63;;;2.58;;
47715;SDS011;33476;50.984;3.538;2022-08-30T00:08:42;10.23;;;2.85;;
47715;SDS011;33476;50.984;3.538;2022-08-30T00:11:09;8.10;;;2.80;;
47715;SDS011;33476;50.984;3.538;2022-08-30T00:13:37;9.23;;;2.40;;
47715;SDS011;33476;50.984;3.538;2022-08-30T00:16:04;6.68;;;2.20;;
47715;SDS011;33476;50.984;3.538;2022-08-30T00:18:31;7.35;;;2.42;;
47715;SDS011;33476;50.984;3.538;2022-08-30T00:20:57;11.02;;;2.63;;
47715;SDS011;33476;50.984;3.538;2022-08-30T00:23:22;6.38;;;2.50;;
47715;SDS011;33476;50.984;3.538;2022-08-30T00:25:48;5.82;;;2.40;;
47715;SDS011;33476;50.984;3.538;2022-08-30T00:28:13;12.52;;;3.08;;
47715;SDS011;33476;50.984;3.538;2022-08-30T00:30:39;8.20;;;2.83;;
47715;SDS011;33476;50.984;3.538;2022-08-30T00:33:05;12.57;;;2.55;;
47715;SDS011;33476;50.984;3.538;2022-08-30T00:35:31;8.38;;;2.80;;
47715;SDS011;33476;50.984;3.538;2022-08-30T00:37:57;10.38;;;3.00;;
47715;SDS011;33476;50.984;3.538;2022-08-30T00:40:23;9.75;;;2.97;;
47715;SDS011;33476;50.984;3.538;2022-08-30T00:42:49;7.38;;;2.92;;
47715;SDS011;33476;50.984;3.538;2022-08-30T00:45:25;7.50;;;3.00;;
47715;SDS011;33476;50.984;3.538;2022-08-30T00:47:53;7.10;;;2.85;;
47715;SDS011;33476;50.984;3.538;2022-08-30T00:50:21;8.07;;;2.90;;
47715;SDS011;33476;50.984;3.538;2022-08-30T00:52:49;10.55;;;3.25;;
47715;SDS011;33476;50.984;3.538;2022-08-30T00:55:17;10.55;;;3.72;;
47715;SDS011;33476;50.984;3.538;2022-08-30T00:57:44;8.13;;;2.95;;
47715;SDS011;33476;50.984;3.538;2022-08-30T01:00:11;6.45;;;3.22;;
47715;SDS011;33476;50.984;3.538;2022-08-30T01:02:39;7.43;;;3.20;;
47715;SDS011;33476;50.984;3.538;2022-08-30T01:05:06;6.97;;;3.65;;
47715;SDS011;33476;50.984;3.538;2022-08-30T01:07:34;9.20;;;3.22;;
47715;SDS011;33476;50.984;3.538;2022-08-30T01:10:01;7.18;;;2.70;;
47715;SDS011;33476;50.984;3.538;2022-08-30T01:12:28;6.75;;;2.80;;
47715;SDS011;33476;50.984;3.538;2022-08-30T01:14:54;10.70;;;3.45;;
47715;SDS011;33476;50.984;3.538;2022-08-30T01:17:20;8.00;;;3.35;;
47715;SDS011;33476;50.984;3.538;2022-08-30T01:19:51;7.95;;;3.25;;
47715;SDS011;33476;50.984;3.538;2022-08-30T01:24:52;8.68;;;3.42;;
47715;SDS011;33476;50.984;3.538;2022-08-30T01:27:20;8.60;;;3.30;;
47715;SDS011;33476;50.984;3.538;2022-08-30T01:29:46;7.63;;;3.35;;
47715;SDS011;33476;50.984;3.538;2022-08-30T01:32:17;10.95;;;3.25;;
47715;SDS011;33476;50.984;3.538;2022-08-30T01:34:45;11.60;;;3.15;;
47715;SDS011;33476;50.984;3.538;2022-08-30T01:37:18;8.43;;;3.40;;
47715;SDS011;33476;50.984;3.538;2022-08-30T01:39:48;7.35;;;2.72;;
47715;SDS011;33476;50.984;3.538;2022-08-30T01:42:14;13.10;;;3.42;;
47715;SDS011;33476;50.984;3.538;2022-08-30T01:44:42;7.28;;;3.55;;
47715;SDS011;33476;50.984;3.538;2022-08-30T01:47:08;9.00;;;3.88;;
47715;SDS011;33476;50.984;3.538;2022-08-30T01:49:34;6.25;;;3.05;;
47715;SDS011;33476;50.984;3.538;2022-08-30T01:52:00;8.30;;;3.45;;
47715;SDS011;33476;50.984;3.538;2022-08-30T01:54:25;9.25;;;3.47;;
47715;SDS011;33476;50.984;3.538;2022-08-30T01:56:50;11.18;;;3.28;;
47715;SDS011;33476;50.984;3.538;2022-08-30T01:59:16;7.30;;;3.67;;
47715;SDS011;33476;50.984;3.538;2022-08-30T02:01:41;8.38;;;3.38;;
47715;SDS011;33476;50.984;3.538;2022-08-30T02:04:07;8.88;;;3.30;;
47715;SDS011;33476;50.984;3.538;2022-08-30T02:06:34;8.18;;;3.35;;
47715;SDS011;33476;50.984;3.538;2022-08-30T02:09:01;10.90;;;3.60;;
47715;SDS011;33476;50.984;3.538;2022-08-30T02:11:26;10.65;;;3.50;;
47715;SDS011;33476;50.984;3.538;2022-08-30T02:13:52;12.25;;;3.97;;
47715;SDS011;33476;50.984;3.538;2022-08-30T02:16:18;10.80;;;3.90;;
47715;SDS011;33476;50.984;3.538;2022-08-30T02:18:47;10.32;;;3.75;;
47715;SDS011;33476;50.984;3.538;2022-08-30T02:21:13;9.20;;;3.55;;
47715;SDS011;33476;50.984;3.538;2022-08-30T02:23:39;9.93;;;3.20;;
47715;SDS011;33476;50.984;3.538;2022-08-30T02:26:05;10.45;;;3.90;;
47715;SDS011;33476;50.984;3.538;2022-08-30T02:28:30;8.02;;;2.95;;
47715;SDS011;33476;50.984;3.538;2022-08-30T02:30:56;11.25;;;3.65;;
47715;SDS011;33476;50.984;3.538;2022-08-30T02:33:22;6.35;;;3.60;;
47715;SDS011;33476;50.984;3.538;2022-08-30T02:35:47;6.60;;;3.25;;
47715;SDS011;33476;50.984;3.538;2022-08-30T02:38:13;5.60;;;3.05;;
47715;SDS011;33476;50.984;3.538;2022-08-30T02:40:38;7.68;;;3.17;;
47715;SDS011;33476;50.984;3.538;2022-08-30T02:43:04;11.23;;;3.72;;
47715;SDS011;33476;50.984;3.538;2022-08-30T02:45:29;7.05;;;3.33;;
47715;SDS011;33476;50.984;3.538;2022-08-30T02:47:55;7.95;;;3.47;;
47715;SDS011;33476;50.984;3.538;2022-08-30T02:50:20;8.90;;;3.65;;
47715;SDS011;33476;50.984;3.538;2022-08-30T02:52:46;6.22;;;2.72;;
47715;SDS011;33476;50.984;3.538;2022-08-30T02:55:12;11.00;;;3.35;;
47715;SDS011;33476;50.984;3.538;2022-08-30T02:57:37;8.02;;;3.35;;
47715;SDS011;33476;50.984;3.538;2022-08-30T03:00:06;9.77;;;3.40;;
47715;SDS011;33476;50.984;3.538;2022-08-30T03:02:33;7.85;;;2.95;;
47715;SDS011;33476;50.984;3.538;2022-08-30T03:04:59;10.00;;;3.30;;
47715;SDS011;33476;50.984;3.538;2022-08-30T03:07:24;6.68;;;3.22;;
47715;SDS011;33476;50.984;3.538;2022-08-30T03:09:50;6.68;;;3.38;;
47715;SDS011;33476;50.984;3.538;2022-08-30T03:12:15;6.38;;;3.13;;
47715;SDS011;33476;50.984;3.538;2022-08-30T03:14:40;9.98;;;3.70;;
47715;SDS011;33476;50.984;3.538;2022-08-30T03:17:06;6.07;;;2.97;;
47715;SDS011;33476;50.984;3.538;2022-08-30T03:19:33;5.90;;;3.10;;
47715;SDS011;33476;50.984;3.538;2022-08-30T03:22:03;11.30;;;3.42;;
47715;SDS011;33476;50.984;3.538;2022-08-30T03:24:29;12.15;;;4.13;;
47715;SDS011;33476;50.984;3.538;2022-08-30T03:26:54;7.13;;;3.15;;
47715;SDS011;33476;50.984;3.538;2022-08-30T03:29:19;9.25;;;3.85;;
47715;SDS011;33476;50.984;3.538;2022-08-30T03:31:45;9.38;;;3.35;;
47715;SDS011;33476;50.984;3.538;2022-08-30T03:34:10;8.88;;;3.33;;
47715;SDS011;33476;50.984;3.538;2022-08-30T03:36:37;10.40;;;3.70;;
47715;SDS011;33476;50.984;3.538;2022-08-30T03:39:06;10.85;;;3.75;;
47715;SDS011;33476;50.984;3.538;2022-08-30T03:41:32;8.93;;;3.67;;
47715;SDS011;33476;50.984;3.538;2022-08-30T03:43:59;8.02;;;3.65;;
47715;SDS011;33476;50.984;3.538;2022-08-30T03:46:25;8.20;;;3.33;;
47715;SDS011;33476;50.984;3.538;2022-08-30T03:48:51;9.20;;;3.13;;
47715;SDS011;33476;50.984;3.538;2022-08-30T03:51:19;15.93;;;4.10;;
47715;SDS011;33476;50.984;3.538;2022-08-30T03:53:45;7.18;;;3.58;;
47715;SDS011;33476;50.984;3.538;2022-08-30T03:56:10;8.85;;;3.28;;
47715;SDS011;33476;50.984;3.538;2022-08-30T03:58:36;7.25;;;3.13;;
47715;SDS011;33476;50.984;3.538;2022-08-30T04:01:01;9.48;;;3.10;;
47715;SDS011;33476;50.984;3.538;2022-08-30T04:03:27;10.15;;;3.72;;
47715;SDS011;33476;50.984;3.538;2022-08-30T04:05:53;6.93;;;3.53;;
47715;SDS011;33476;50.984;3.538;2022-08-30T04:08:19;8.07;;;3.53;;
47715;SDS011;33476;50.984;3.538;2022-08-30T04:10:45;11.52;;;3.33;;
47715;SDS011;33476;50.984;3.538;2022-08-30T04:13:12;7.03;;;3.42;;
47715;SDS011;33476;50.984;3.538;2022-08-30T04:15:38;5.13;;;3.22;;
47715;SDS011;33476;50.984;3.538;2022-08-30T04:18:03;9.68;;;3.63;;
47715;SDS011;33476;50.984;3.538;2022-08-30T04:20:29;8.70;;;3.50;;
47715;SDS011;33476;50.984;3.538;2022-08-30T04:22:55;7.70;;;3.70;;
47715;SDS011;33476;50.984;3.538;2022-08-30T04:25:21;5.45;;;2.80;;
47715;SDS011;33476;50.984;3.538;2022-08-30T04:27:47;9.10;;;3.58;;
47715;SDS011;33476;50.984;3.538;2022-08-30T04:30:14;7.05;;;3.58;;
47715;SDS011;33476;50.984;3.538;2022-08-30T04:32:40;7.55;;;3.50;;
47715;SDS011;33476;50.984;3.538;2022-08-30T04:35:06;9.63;;;3.00;;
47715;SDS011;33476;50.984;3.538;2022-08-30T04:37:33;8.15;;;3.53;;
47715;SDS011;33476;50.984;3.538;2022-08-30T04:39:58;7.15;;;2.80;;
47715;SDS011;33476;50.984;3.538;2022-08-30T04:42:27;8.57;;;3.30;;
47715;SDS011;33476;50.984;3.538;2022-08-30T04:44:56;8.30;;;3.22;;
47715;SDS011;33476;50.984;3.538;2022-08-30T04:47:21;5.97;;;3.67;;
47715;SDS011;33476;50.984;3.538;2022-08-30T04:49:47;7.32;;;3.67;;
47715;SDS011;33476;50.984;3.538;2022-08-30T04:52:12;7.95;;;3.53;;
47715;SDS011;33476;50.984;3.538;2022-08-30T04:54:38;6.55;;;3.75;;
47715;SDS011;33476;50.984;3.538;2022-08-30T04:57:04;9.27;;;3.63;;
47715;SDS011;33476;50.984;3.538;2022-08-30T04:59:30;8.38;;;3.25;;
47715;SDS011;33476;50.984;3.538;2022-08-30T05:01:57;8.10;;;3.85;;
47715;SDS011;33476;50.984;3.538;2022-08-30T05:04:22;7.82;;;3.65;;
47715;SDS011;33476;50.984;3.538;2022-08-30T05:06:47;8.95;;;4.03;;
47715;SDS011;33476;50.984;3.538;2022-08-30T05:09:13;7.03;;;3.67;;
47715;SDS011;33476;50.984;3.538;2022-08-30T05:11:38;9.68;;;3.90;;
47715;SDS011;33476;50.984;3.538;2022-08-30T05:14:04;9.38;;;4.55;;
47715;SDS011;33476;50.984;3.538;2022-08-30T05:16:30;10.50;;;3.45;;
47715;SDS011;33476;50.984;3.538;2022-08-30T05:18:55;6.57;;;3.72;;
47715;SDS011;33476;50.984;3.538;2022-08-30T05:21:23;7.55;;;3.80;;
47715;SDS011;33476;50.984;3.538;2022-08-30T05:23:51;5.88;;;3.47;;
47715;SDS011;33476;50.984;3.538;2022-08-30T05:26:19;8.30;;;3.75;;
47715;SDS011;33476;50.984;3.538;2022-08-30T05:28:49;8.63;;;3.50;;
47715;SDS011;33476;50.984;3.538;2022-08-30T05:31:22;6.63;;;3.85;;
47715;SDS011;33476;50.984;3.538;2022-08-30T05:33:50;11.02;;;3.70;;
47715;SDS011;33476;50.984;3.538;2022-08-30T05:36:17;9.00;;;3.63;;
47715;SDS011;33476;50.984;3.538;2022-08-30T05:38:44;11.10;;;3.38;;
47715;SDS011;33476;50.984;3.538;2022-08-30T05:41:09;11.18;;;3.30;;
47715;SDS011;33476;50.984;3.538;2022-08-30T05:43:35;11.05;;;3.45;;
47715;SDS011;33476;50.984;3.538;2022-08-30T05:46:05;8.82;;;3.47;;
47715;SDS011;33476;50.984;3.538;2022-08-30T05:48:32;10.40;;;4.30;;
47715;SDS011;33476;50.984;3.538;2022-08-30T05:51:06;8.88;;;3.95;;
47715;SDS011;33476;50.984;3.538;2022-08-30T05:53:35;7.45;;;3.17;;
47715;SDS011;33476;50.984;3.538;2022-08-30T05:56:01;6.35;;;3.40;;
47715;SDS011;33476;50.984;3.538;2022-08-30T05:58:29;10.45;;;3.60;;
47715;SDS011;33476;50.984;3.538;2022-08-30T06:00:54;7.28;;;3.90;;
47715;SDS011;33476;50.984;3.538;2022-08-30T06:03:20;11.32;;;3.85;;
47715;SDS011;33476;50.984;3.538;2022-08-30T06:05:45;11.65;;;4.05;;
47715;SDS011;33476;50.984;3.538;2022-08-30T06:08:11;9.38;;;3.55;;
47715;SDS011;33476;50.984;3.538;2022-08-30T06:10:36;10.60;;;3.80;;
47715;SDS011;33476;50.984;3.538;2022-08-30T06:13:02;9.45;;;4.43;;
47715;SDS011;33476;50.984;3.538;2022-08-30T06:15:27;14.52;;;4.70;;
47715;SDS011;33476;50.984;3.538;2022-08-30T06:17:53;10.80;;;4.50;;
47715;SDS011;33476;50.984;3.538;2022-08-30T06:20:18;8.32;;;3.97;;
47715;SDS011;33476;50.984;3.538;2022-08-30T06:22:44;9.25;;;4.15;;
47715;SDS011;33476;50.984;3.538;2022-08-30T06:25:10;11.25;;;4.93;;
47715;SDS011;33476;50.984;3.538;2022-08-30T06:27:36;9.18;;;6.13;;
47715;SDS011;33476;50.984;3.538;2022-08-30T06:30:01;12.20;;;5.85;;
47715;SDS011;33476;50.984;3.538;2022-08-30T06:32:27;10.40;;;6.22;;
47715;SDS011;33476;50.984;3.538;2022-08-30T06:34:52;10.48;;;7.10;;
47715;SDS011;33476;50.984;3.538;2022-08-30T06:37:18;13.65;;;6.93;;
47715;SDS011;33476;50.984;3.538;2022-08-30T06:39:43;12.48;;;6.70;;
47715;SDS011;33476;50.984;3.538;2022-08-30T06:42:09;15.00;;;6.57;;
47715;SDS011;33476;50.984;3.538;2022-08-30T06:44:34;12.43;;;6.15;;
47715;SDS011;33476;50.984;3.538;2022-08-30T06:47:00;10.05;;;6.00;;
47715;SDS011;33476;50.984;3.538;2022-08-30T06:49:25;10.02;;;5.30;;
47715;SDS011;33476;50.984;3.538;2022-08-30T06:51:51;9.63;;;5.22;;
47715;SDS011;33476;50.984;3.538;2022-08-30T06:54:17;11.23;;;5.47;;
47715;SDS011;33476;50.984;3.538;2022-08-30T06:56:42;16.50;;;6.05;;
47715;SDS011;33476;50.984;3.538;2022-08-30T06:59:08;12.98;;;5.90;;
47715;SDS011;33476;50.984;3.538;2022-08-30T07:01:33;16.20;;;6.00;;
47715;SDS011;33476;50.984;3.538;2022-08-30T07:03:59;11.82;;;6.00;;
47715;SDS011;33476;50.984;3.538;2022-08-30T07:06:25;17.67;;;7.13;;
47715;SDS011;33476;50.984;3.538;2022-08-30T07:08:51;19.80;;;7.32;;
47715;SDS011;33476;50.984;3.538;2022-08-30T07:11:31;14.45;;;6.28;;
47715;SDS011;33476;50.984;3.538;2022-08-30T07:13:58;12.25;;;6.53;;
47715;SDS011;33476;50.984;3.538;2022-08-30T07:16:24;14.57;;;6.75;;
47715;SDS011;33476;50.984;3.538;2022-08-30T07:18:50;15.35;;;6.35;;
47715;SDS011;33476;50.984;3.538;2022-08-30T07:21:17;14.52;;;7.13;;
47715;SDS011;33476;50.984;3.538;2022-08-30T07:23:45;9.80;;;5.38;;
47715;SDS011;33476;50.984;3.538;2022-08-30T07:26:16;10.65;;;5.95;;
47715;SDS011;33476;50.984;3.538;2022-08-30T07:28:44;9.37;;;5.17;;
47715;SDS011;33476;50.984;3.538;2022-08-30T07:31:11;8.40;;;5.50;;
47715;SDS011;33476;50.984;3.538;2022-08-30T07:33:37;11.02;;;5.03;;
47715;SDS011;33476;50.984;3.538;2022-08-30T07:36:04;10.18;;;5.32;;
47715;SDS011;33476;50.984;3.538;2022-08-30T07:38:30;11.48;;;5.70;;
47715;SDS011;33476;50.984;3.538;2022-08-30T07:40:55;9.52;;;5.70;;
47715;SDS011;33476;50.984;3.538;2022-08-30T07:43:25;14.17;;;5.83;;
47715;SDS011;33476;50.984;3.538;2022-08-30T07:45:51;9.43;;;5.72;;
47715;SDS011;33476;50.984;3.538;2022-08-30T07:48:16;8.55;;;5.40;;
47715;SDS011;33476;50.984;3.538;2022-08-30T07:50:42;15.68;;;5.93;;
47715;SDS011;33476;50.984;3.538;2022-08-30T07:53:08;8.95;;;5.60;;
47715;SDS011;33476;50.984;3.538;2022-08-30T07:55:34;13.57;;;5.38;;
47715;SDS011;33476;50.984;3.538;2022-08-30T07:57:59;12.38;;;6.07;;
47715;SDS011;33476;50.984;3.538;2022-08-30T08:00:25;14.18;;;5.60;;
47715;SDS011;33476;50.984;3.538;2022-08-30T08:02:51;14.43;;;5.55;;
47715;SDS011;33476;50.984;3.538;2022-08-30T08:05:16;12.82;;;5.57;;
47715;SDS011;33476;50.984;3.538;2022-08-30T08:07:42;9.68;;;5.13;;
47715;SDS011;33476;50.984;3.538;2022-08-30T08:10:07;8.57;;;4.72;;
47715;SDS011;33476;50.984;3.538;2022-08-30T08:12:33;9.82;;;5.25;;
47715;SDS011;33476;50.984;3.538;2022-08-30T08:15:00;12.15;;;5.15;;
47715;SDS011;33476;50.984;3.538;2022-08-30T08:17:26;9.55;;;4.63;;
47715;SDS011;33476;50.984;3.538;2022-08-30T08:19:51;7.38;;;4.68;;
47715;SDS011;33476;50.984;3.538;2022-08-30T08:22:17;8.73;;;4.68;;
47715;SDS011;33476;50.984;3.538;2022-08-30T08:24:42;8.75;;;3.85;;
47715;SDS011;33476;50.984;3.538;2022-08-30T08:27:07;9.55;;;4.57;;
47715;SDS011;33476;50.984;3.538;2022-08-30T08:29:33;12.65;;;4.00;;
47715;SDS011;33476;50.984;3.538;2022-08-30T08:31:58;18.15;;;4.13;;
47715;SDS011;33476;50.984;3.538;2022-08-30T08:34:24;10.50;;;3.78;;
47715;SDS011;33476;50.984;3.538;2022-08-30T08:36:51;7.40;;;3.80;;
47715;SDS011;33476;50.984;3.538;2022-08-30T08:39:17;10.55;;;3.90;;
47715;SDS011;33476;50.984;3.538;2022-08-30T08:44:33;10.20;;;3.65;;
47715;SDS011;33476;50.984;3.538;2022-08-30T08:47:15;10.98;;;3.55;;
47715;SDS011;33476;50.984;3.538;2022-08-30T08:49:48;6.88;;;4.00;;
47715;SDS011;33476;50.984;3.538;2022-08-30T08:52:22;6.82;;;3.38;;
47715;SDS011;33476;50.984;3.538;2022-08-30T08:55:12;8.30;;;3.22;;
47715;SDS011;33476;50.984;3.538;2022-08-30T08:57:40;6.72;;;3.13;;
47715;SDS011;33476;50.984;3.538;2022-08-30T09:00:06;4.70;;;3.47;;
47715;SDS011;33476;50.984;3.538;2022-08-30T09:02:39;6.50;;;3.40;;
47715;SDS011;33476;50.984;3.538;2022-08-30T09:05:10;10.95;;;3.70;;
47715;SDS011;33476;50.984;3.538;2022-08-30T09:07:42;10.02;;;3.47;;
47715;SDS011;33476;50.984;3.538;2022-08-30T09:10:12;4.55;;;2.75;;
47715;SDS011;33476;50.984;3.538;2022-08-30T09:12:38;6.97;;;3.17;;
47715;SDS011;33476;50.984;3.538;2022-08-30T09:15:19;10.02;;;3.38;;
47715;SDS011;33476;50.984;3.538;2022-08-30T09:17:58;4.50;;;3.33;;
47715;SDS011;33476;50.984;3.538;2022-08-30T09:20:30;6.10;;;2.53;;
47715;SDS011;33476;50.984;3.538;2022-08-30T09:25:53;5.53;;;3.08;;
47715;SDS011;33476;50.984;3.538;2022-08-30T09:28:25;4.47;;;2.50;;
47715;SDS011;33476;50.984;3.538;2022-08-30T09:33:30;5.22;;;2.72;;
47715;SDS011;33476;50.984;3.538;2022-08-30T09:35:56;12.02;;;2.90;;
47715;SDS011;33476;50.984;3.538;2022-08-30T09:38:33;8.10;;;2.58;;
47715;SDS011;33476;50.984;3.538;2022-08-30T09:41:00;4.00;;;2.30;;
47715;SDS011;33476;50.984;3.538;2022-08-30T09:43:46;6.88;;;2.83;;
47715;SDS011;33476;50.984;3.538;2022-08-30T09:46:29;3.35;;;2.72;;
47715;SDS011;33476;50.984;3.538;2022-08-30T09:48:55;6.32;;;2.28;;
47715;SDS011;33476;50.984;3.538;2022-08-30T09:51:26;7.18;;;2.83;;
47715;SDS011;33476;50.984;3.538;2022-08-30T09:56:53;6.10;;;2.40;;
47715;SDS011;33476;50.984;3.538;2022-08-30T10:12:59;13.10;;;2.80;;
47715;SDS011;33476;50.984;3.538;2022-08-30T10:15:47;6.53;;;2.25;;
47715;SDS011;33476;50.984;3.538;2022-08-30T10:18:23;13.68;;;3.25;;
47715;SDS011;33476;50.984;3.538;2022-08-30T10:23:50;5.00;;;2.00;;
47715;SDS011;33476;50.984;3.538;2022-08-30T10:29:00;7.50;;;2.67;;
47715;SDS011;33476;50.984;3.538;2022-08-30T10:34:30;5.53;;;2.15;;
47715;SDS011;33476;50.984;3.538;2022-08-30T10:37:08;6.63;;;2.20;;
47715;SDS011;33476;50.984;3.538;2022-08-30T10:39:57;5.50;;;1.85;;
47715;SDS011;33476;50.984;3.538;2022-08-30T10:42:46;5.43;;;1.92;;
47715;SDS011;33476;50.984;3.538;2022-08-30T10:45:14;3.50;;;2.42;;
47715;SDS011;33476;50.984;3.538;2022-08-30T10:50:24;5.43;;;2.70;;
47715;SDS011;33476;50.984;3.538;2022-08-30T10:52:58;6.35;;;2.30;;
47715;SDS011;33476;50.984;3.538;2022-08-30T10:55:44;4.80;;;1.95;;
47715;SDS011;33476;50.984;3.538;2022-08-30T10:58:15;8.77;;;2.33;;
47715;SDS011;33476;50.984;3.538;2022-08-30T11:06:30;4.68;;;2.58;;
47715;SDS011;33476;50.984;3.538;2022-08-30T11:14:25;6.40;;;2.20;;
47715;SDS011;33476;50.984;3.538;2022-08-30T11:16:52;6.45;;;2.13;;
47715;SDS011;33476;50.984;3.538;2022-08-30T11:19:23;7.53;;;1.40;;
47715;SDS011;33476;50.984;3.538;2022-08-30T11:27:38;7.03;;;3.08;;
47715;SDS011;33476;50.984;3.538;2022-08-30T11:38:11;5.82;;;2.42;;
47715;SDS011;33476;50.984;3.538;2022-08-30T11:54:31;7.25;;;2.33;;
47715;SDS011;33476;50.984;3.538;2022-08-30T12:00:03;7.40;;;2.20;;
47715;SDS011;33476;50.984;3.538;2022-08-30T12:03:00;8.38;;;1.95;;
47715;SDS011;33476;50.984;3.538;2022-08-30T12:08:05;7.47;;;1.80;;
47715;SDS011;33476;50.984;3.538;2022-08-30T12:13:03;6.28;;;1.42;;
47715;SDS011;33476;50.984;3.538;2022-08-30T12:23:57;7.15;;;1.58;;
47715;SDS011;33476;50.984;3.538;2022-08-30T12:26:28;6.25;;;1.60;;
47715;SDS011;33476;50.984;3.538;2022-08-30T12:34:20;3.90;;;1.27;;
47715;SDS011;33476;50.984;3.538;2022-08-30T12:39:29;5.38;;;1.60;;
47715;SDS011;33476;50.984;3.538;2022-08-30T12:42:36;5.78;;;1.20;;
47715;SDS011;33476;50.984;3.538;2022-08-30T12:44:57;5.80;;;1.80;;
47715;SDS011;33476;50.984;3.538;2022-08-30T12:50:02;5.78;;;1.30;;
47715;SDS011;33476;50.984;3.538;2022-08-30T12:55:19;6.18;;;1.45;;
47715;SDS011;33476;50.984;3.538;2022-08-30T13:00:33;11.43;;;1.20;;
47715;SDS011;33476;50.984;3.538;2022-08-30T13:03:52;5.85;;;1.25;;
47715;SDS011;33476;50.984;3.538;2022-08-30T13:05:53;5.03;;;1.10;;
47715;SDS011;33476;50.984;3.538;2022-08-30T13:08:33;4.97;;;0.90;;
47715;SDS011;33476;50.984;3.538;2022-08-30T13:11:08;12.00;;;1.67;;
47715;SDS011;33476;50.984;3.538;2022-08-30T13:18:45;12.32;;;1.92;;
47715;SDS011;33476;50.984;3.538;2022-08-30T13:21:22;6.30;;;1.30;;
47715;SDS011;33476;50.984;3.538;2022-08-30T13:23:59;12.68;;;1.25;;
47715;SDS011;33476;50.984;3.538;2022-08-30T13:26:27;6.45;;;0.93;;
47715;SDS011;33476;50.984;3.538;2022-08-30T13:28:56;3.88;;;1.30;;
47715;SDS011;33476;50.984;3.538;2022-08-30T13:31:24;8.00;;;0.90;;
47715;SDS011;33476;50.984;3.538;2022-08-30T13:33:51;7.15;;;1.08;;
47715;SDS011;33476;50.984;3.538;2022-08-30T13:36:26;7.88;;;1.10;;
47715;SDS011;33476;50.984;3.538;2022-08-30T13:38:53;2.70;;;0.70;;
47715;SDS011;33476;50.984;3.538;2022-08-30T13:41:19;2.83;;;0.70;;
47715;SDS011;33476;50.984;3.538;2022-08-30T13:43:45;6.95;;;1.17;;
47715;SDS011;33476;50.984;3.538;2022-08-30T13:46:11;6.35;;;0.80;;
47715;SDS011;33476;50.984;3.538;2022-08-30T13:48:39;8.65;;;0.90;;
47715;SDS011;33476;50.984;3.538;2022-08-30T13:51:05;8.07;;;0.90;;
47715;SDS011;33476;50.984;3.538;2022-08-30T13:53:31;4.70;;;0.93;;
47715;SDS011;33476;50.984;3.538;2022-08-30T13:55:56;7.95;;;1.27;;
47715;SDS011;33476;50.984;3.538;2022-08-30T13:58:22;5.93;;;0.95;;
47715;SDS011;33476;50.984;3.538;2022-08-30T14:00:47;8.90;;;1.00;;
47715;SDS011;33476;50.984;3.538;2022-08-30T14:03:13;6.72;;;0.90;;
47715;SDS011;33476;50.984;3.538;2022-08-30T14:05:40;4.30;;;0.60;;
47715;SDS011;33476;50.984;3.538;2022-08-30T14:08:06;5.88;;;0.73;;
47715;SDS011;33476;50.984;3.538;2022-08-30T14:10:33;2.28;;;0.82;;
47715;SDS011;33476;50.984;3.538;2022-08-30T14:12:59;3.75;;;0.82;;
47715;SDS011;33476;50.984;3.538;2022-08-30T14:15:25;9.77;;;0.93;;
47715;SDS011;33476;50.984;3.538;2022-08-30T14:17:50;5.20;;;1.00;;
47715;SDS011;33476;50.984;3.538;2022-08-30T14:20:16;3.63;;;0.60;;
47715;SDS011;33476;50.984;3.538;2022-08-30T14:22:43;6.40;;;1.08;;
47715;SDS011;33476;50.984;3.538;2022-08-30T14:25:08;3.80;;;0.93;;
47715;SDS011;33476;50.984;3.538;2022-08-30T14:27:34;4.40;;;0.93;;
47715;SDS011;33476;50.984;3.538;2022-08-30T14:29:59;6.38;;;0.90;;
47715;SDS011;33476;50.984;3.538;2022-08-30T14:32:24;4.65;;;0.77;;
47715;SDS011;33476;50.984;3.538;2022-08-30T14:34:50;4.32;;;0.70;;
47715;SDS011;33476;50.984;3.538;2022-08-30T14:37:15;4.47;;;0.90;;
47715;SDS011;33476;50.984;3.538;2022-08-30T14:39:41;5.68;;;1.02;;
47715;SDS011;33476;50.984;3.538;2022-08-30T14:42:07;8.32;;;0.70;;
47715;SDS011;33476;50.984;3.538;2022-08-30T14:44:33;4.95;;;0.50;;
47715;SDS011;33476;50.984;3.538;2022-08-30T14:46:59;3.35;;;0.40;;
47715;SDS011;33476;50.984;3.538;2022-08-30T14:49:24;4.78;;;1.00;;
47715;SDS011;33476;50.984;3.538;2022-08-30T14:51:50;16.63;;;1.20;;
47715;SDS011;33476;50.984;3.538;2022-08-30T14:54:16;10.88;;;0.80;;
47715;SDS011;33476;50.984;3.538;2022-08-30T14:56:44;6.85;;;0.70;;
47715;SDS011;33476;50.984;3.538;2022-08-30T14:59:09;2.55;;;0.60;;
47715;SDS011;33476;50.984;3.538;2022-08-30T15:01:36;7.45;;;0.70;;
47715;SDS011;33476;50.984;3.538;2022-08-30T15:04:03;8.15;;;1.52;;
47715;SDS011;33476;50.984;3.538;2022-08-30T15:06:30;7.65;;;1.00;;
47715;SDS011;33476;50.984;3.538;2022-08-30T15:08:56;4.28;;;0.55;;
47715;SDS011;33476;50.984;3.538;2022-08-30T15:11:22;4.00;;;0.65;;
47715;SDS011;33476;50.984;3.538;2022-08-30T15:13:49;10.23;;;0.75;;
47715;SDS011;33476;50.984;3.538;2022-08-30T15:16:16;2.50;;;0.40;;
47715;SDS011;33476;50.984;3.538;2022-08-30T15:18:51;6.35;;;0.60;;
47715;SDS011;33476;50.984;3.538;2022-08-30T15:21:21;7.38;;;0.70;;
47715;SDS011;33476;50.984;3.538;2022-08-30T15:23:51;2.85;;;0.55;;
47715;SDS011;33476;50.984;3.538;2022-08-30T15:26:16;8.02;;;0.60;;
47715;SDS011;33476;50.984;3.538;2022-08-30T15:28:42;3.47;;;0.50;;
47715;SDS011;33476;50.984;3.538;2022-08-30T15:31:07;3.72;;;0.82;;
47715;SDS011;33476;50.984;3.538;2022-08-30T15:33:32;3.88;;;0.70;;
47715;SDS011;33476;50.984;3.538;2022-08-30T15:35:58;7.75;;;0.80;;
47715;SDS011;33476;50.984;3.538;2022-08-30T15:38:25;5.70;;;0.60;;
47715;SDS011;33476;50.984;3.538;2022-08-30T15:40:50;5.22;;;0.80;;
47715;SDS011;33476;50.984;3.538;2022-08-30T15:43:16;4.63;;;0.35;;
47715;SDS011;33476;50.984;3.538;2022-08-30T15:45:41;11.57;;;0.60;;
47715;SDS011;33476;50.984;3.538;2022-08-30T15:48:07;5.60;;;0.52;;
47715;SDS011;33476;50.984;3.538;2022-08-30T15:50:32;1.83;;;0.50;;
47715;SDS011;33476;50.984;3.538;2022-08-30T15:52:59;6.05;;;0.40;;
47715;SDS011;33476;50.984;3.538;2022-08-30T15:55:25;2.30;;;0.80;;
47715;SDS011;33476;50.984;3.538;2022-08-30T15:57:50;1.92;;;0.52;;
47715;SDS011;33476;50.984;3.538;2022-08-30T16:00:15;8.57;;;0.88;;
47715;SDS011;33476;50.984;3.538;2022-08-30T16:02:41;11.80;;;0.80;;
47715;SDS011;33476;50.984;3.538;2022-08-30T16:05:07;3.45;;;0.50;;
47715;SDS011;33476;50.984;3.538;2022-08-30T16:07:33;8.18;;;0.47;;
47715;SDS011;33476;50.984;3.538;2022-08-30T16:09:58;3.67;;;0.40;;
47715;SDS011;33476;50.984;3.538;2022-08-30T16:12:24;3.45;;;0.70;;
47715;SDS011;33476;50.984;3.538;2022-08-30T16:14:49;3.20;;;0.52;;
47715;SDS011;33476;50.984;3.538;2022-08-30T16:17:15;4.20;;;0.68;;
47715;SDS011;33476;50.984;3.538;2022-08-30T16:19:41;8.00;;;0.63;;
47715;SDS011;33476;50.984;3.538;2022-08-30T16:22:06;4.93;;;0.85;;
47715;SDS011;33476;50.984;3.538;2022-08-30T16:24:32;4.63;;;0.68;;
47715;SDS011;33476;50.984;3.538;2022-08-30T16:26:58;3.70;;;0.57;;
47715;SDS011;33476;50.984;3.538;2022-08-30T16:29:23;4.50;;;0.45;;
47715;SDS011;33476;50.984;3.538;2022-08-30T16:31:49;3.78;;;0.50;;
47715;SDS011;33476;50.984;3.538;2022-08-30T16:34:16;2.17;;;0.43;;
47715;SDS011;33476;50.984;3.538;2022-08-30T16:36:42;3.35;;;0.60;;
47715;SDS011;33476;50.984;3.538;2022-08-30T16:39:08;6.00;;;0.55;;
47715;SDS011;33476;50.984;3.538;2022-08-30T16:41:36;2.45;;;0.40;;